Terminal Aerodrome Forecast
Issued by NWS Albany, NY

Home | Current Version | Previous Version | Text Only | Print | Product List | Glossary On
Versions: 1 2 3 4 5 6 7 8 9 10 11 12 13 14 15 16 17 18 19 20 21 22
000
FTUS41 KALY 221800 AAA
TAFALB
TAF AMD
KALB 221829Z 2218/2318 VRB03KT P6SM VCSH OVC040
     FM222100 12003KT P6SM VCSH OVC025
     FM230500 12003KT 3SM -RAPL BR OVC015
     FM230700 12003KT 2SM -RA BR OVC008
     FM231500 15006KT 5SM -RA BR OVC008=

USA.gov is the U.S. government's official web portal to all federal, state and local government web resources and services.